Terminal Aerodrome Forecast
Issued by NWS

Home | Current Version | Previous Version | Graphics & Text | Print | Product List | Glossary On
Versions: 1 2 3 4 5 6 7 8 9 10 11 12 13 14 15 16 17 18 19
000
FTUS43 KICT 240850 AAA
TAFRSL
TAF AMD
KRSL 240850Z 2409/2506 16018KT P6SM SCT005
     FM241000 16018KT 3SM -DZ BR SCT003 OVC005
     FM241600 19013KT P6SM OVC017=

USA.gov is the U.S. government's official web portal to all federal, state and local government web resources and services.